sensor_id;sensor_type;location;lat;lon;timestamp;temperature;humidity
21563;DHT22;10942;47.894;11.424;2022-10-28T00:00:00;9.60;99.90
21563;DHT22;10942;47.894;11.424;2022-10-28T00:02:26;9.60;99.90
21563;DHT22;10942;47.894;11.424;2022-10-28T00:04:51;9.60;99.90
21563;DHT22;10942;47.894;11.424;2022-10-28T00:07:17;9.60;99.90
21563;DHT22;10942;47.894;11.424;2022-10-28T00:09:43;9.50;99.90
21563;DHT22;10942;47.894;11.424;2022-10-28T00:12:08;9.50;99.90
21563;DHT22;10942;47.894;11.424;2022-10-28T00:14:34;9.50;99.90
21563;DHT22;10942;47.894;11.424;2022-10-28T00:17:00;9.40;99.90
21563;DHT22;10942;47.894;11.424;2022-10-28T00:19:25;9.40;99.90
21563;DHT22;10942;47.894;11.424;2022-10-28T00:21:51;9.40;99.90
21563;DHT22;10942;47.894;11.424;2022-10-28T00:24:17;9.40;99.90
21563;DHT22;10942;47.894;11.424;2022-10-28T00:26:43;9.30;99.90
21563;DHT22;10942;47.894;11.424;2022-10-28T00:29:16;9.30;99.90
21563;DHT22;10942;47.894;11.424;2022-10-28T00:31:42;9.30;99.90
21563;DHT22;10942;47.894;11.424;2022-10-28T00:34:12;9.30;99.90
21563;DHT22;10942;47.894;11.424;2022-10-28T00:36:40;9.30;99.90
21563;DHT22;10942;47.894;11.424;2022-10-28T00:39:15;9.30;99.90
21563;DHT22;10942;47.894;11.424;2022-10-28T00:41:43;9.30;99.90
21563;DHT22;10942;47.894;11.424;2022-10-28T00:47:25;9.30;99.90
21563;DHT22;10942;47.894;11.424;2022-10-28T00:50:05;9.30;99.90
21563;DHT22;10942;47.894;11.424;2022-10-28T00:52:32;9.30;99.90
21563;DHT22;10942;47.894;11.424;2022-10-28T00:55:00;9.30;99.90
21563;DHT22;10942;47.894;11.424;2022-10-28T00:57:31;9.30;99.90
21563;DHT22;10942;47.894;11.424;2022-10-28T00:59:58;9.20;99.90
21563;DHT22;10942;47.894;11.424;2022-10-28T01:02:25;9.20;99.90
21563;DHT22;10942;47.894;11.424;2022-10-28T01:04:51;9.20;99.90
21563;DHT22;10942;47.894;11.424;2022-10-28T01:07:17;9.10;99.90
21563;DHT22;10942;47.894;11.424;2022-10-28T01:09:43;9.10;99.90
21563;DHT22;10942;47.894;11.424;2022-10-28T01:28:52;8.90;99.90
21563;DHT22;10942;47.894;11.424;2022-10-28T01:36:45;9.00;99.90
21563;DHT22;10942;47.894;11.424;2022-10-28T01:47:05;8.90;99.90
21563;DHT22;10942;47.894;11.424;2022-10-28T01:49:39;8.90;99.90
21563;DHT22;10942;47.894;11.424;2022-10-28T01:52:11;8.90;99.90
21563;DHT22;10942;47.894;11.424;2022-10-28T01:54:39;8.80;99.90
21563;DHT22;10942;47.894;11.424;2022-10-28T01:57:06;8.80;99.90
21563;DHT22;10942;47.894;11.424;2022-10-28T01:59:33;8.80;99.90
21563;DHT22;10942;47.894;11.424;2022-10-28T02:02:00;8.70;99.90
21563;DHT22;10942;47.894;11.424;2022-10-28T02:04:25;8.80;99.90
21563;DHT22;10942;47.894;11.424;2022-10-28T02:06:53;8.80;99.90
21563;DHT22;10942;47.894;11.424;2022-10-28T02:12:33;8.70;99.90
21563;DHT22;10942;47.894;11.424;2022-10-28T02:25:37;8.60;99.90
21563;DHT22;10942;47.894;11.424;2022-10-28T02:28:11;8.60;99.90
21563;DHT22;10942;47.894;11.424;2022-10-28T02:33:18;8.50;99.90
21563;DHT22;10942;47.894;11.424;2022-10-28T02:35:53;8.50;99.90
21563;DHT22;10942;47.894;11.424;2022-10-28T02:38:30;8.50;99.90
21563;DHT22;10942;47.894;11.424;2022-10-28T02:41:00;8.50;99.90
21563;DHT22;10942;47.894;11.424;2022-10-28T02:43:28;8.50;99.90
21563;DHT22;10942;47.894;11.424;2022-10-28T02:45:56;8.50;99.90
21563;DHT22;10942;47.894;11.424;2022-10-28T02:48:37;8.50;99.90
21563;DHT22;10942;47.894;11.424;2022-10-28T02:51:10;8.50;99.90
21563;DHT22;10942;47.894;11.424;2022-10-28T02:53:58;8.40;99.90
21563;DHT22;10942;47.894;11.424;2022-10-28T02:56:28;8.40;99.90
21563;DHT22;10942;47.894;11.424;2022-10-28T02:58:54;8.40;99.90
21563;DHT22;10942;47.894;11.424;2022-10-28T03:01:20;8.30;99.90
21563;DHT22;10942;47.894;11.424;2022-10-28T03:03:45;8.30;99.90
21563;DHT22;10942;47.894;11.424;2022-10-28T03:06:11;8.30;99.90
21563;DHT22;10942;47.894;11.424;2022-10-28T03:08:37;8.30;99.90
21563;DHT22;10942;47.894;11.424;2022-10-28T03:11:03;8.30;99.90
21563;DHT22;10942;47.894;11.424;2022-10-28T03:13:28;8.30;99.90
21563;DHT22;10942;47.894;11.424;2022-10-28T03:15:54;8.30;99.90
21563;DHT22;10942;47.894;11.424;2022-10-28T03:18:20;8.30;99.90
21563;DHT22;10942;47.894;11.424;2022-10-28T03:20:46;8.40;99.90
21563;DHT22;10942;47.894;11.424;2022-10-28T03:23:11;8.40;99.90
21563;DHT22;10942;47.894;11.424;2022-10-28T03:25:37;8.40;99.90
21563;DHT22;10942;47.894;11.424;2022-10-28T03:28:03;8.30;99.90
21563;DHT22;10942;47.894;11.424;2022-10-28T03:30:29;8.30;99.90
21563;DHT22;10942;47.894;11.424;2022-10-28T03:32:54;8.30;99.90
21563;DHT22;10942;47.894;11.424;2022-10-28T03:35:20;8.30;99.90
21563;DHT22;10942;47.894;11.424;2022-10-28T03:37:46;8.30;99.90
21563;DHT22;10942;47.894;11.424;2022-10-28T03:40:12;8.30;99.90
21563;DHT22;10942;47.894;11.424;2022-10-28T03:42:40;8.30;99.90
21563;DHT22;10942;47.894;11.424;2022-10-28T03:45:06;8.30;99.90
21563;DHT22;10942;47.894;11.424;2022-10-28T03:47:33;8.30;99.90
21563;DHT22;10942;47.894;11.424;2022-10-28T03:49:59;8.30;99.90
21563;DHT22;10942;47.894;11.424;2022-10-28T03:52:24;8.20;99.90
21563;DHT22;10942;47.894;11.424;2022-10-28T03:54:50;8.20;99.90
21563;DHT22;10942;47.894;11.424;2022-10-28T03:57:16;8.20;99.90
21563;DHT22;10942;47.894;11.424;2022-10-28T03:59:42;8.10;99.90
21563;DHT22;10942;47.894;11.424;2022-10-28T04:02:07;8.20;99.90
21563;DHT22;10942;47.894;11.424;2022-10-28T04:04:33;8.10;99.90
21563;DHT22;10942;47.894;11.424;2022-10-28T04:06:59;8.10;99.90
21563;DHT22;10942;47.894;11.424;2022-10-28T04:09:24;8.20;99.90
21563;DHT22;10942;47.894;11.424;2022-10-28T04:11:50;8.10;99.90
21563;DHT22;10942;47.894;11.424;2022-10-28T04:14:15;8.20;99.90
21563;DHT22;10942;47.894;11.424;2022-10-28T04:16:41;8.10;99.90
21563;DHT22;10942;47.894;11.424;2022-10-28T04:19:07;8.10;99.90
21563;DHT22;10942;47.894;11.424;2022-10-28T04:21:32;8.10;99.90
21563;DHT22;10942;47.894;11.424;2022-10-28T04:23:58;8.10;99.90
21563;DHT22;10942;47.894;11.424;2022-10-28T04:26:24;8.10;99.90
21563;DHT22;10942;47.894;11.424;2022-10-28T04:28:50;8.10;99.90
21563;DHT22;10942;47.894;11.424;2022-10-28T04:31:15;8.00;99.90
21563;DHT22;10942;47.894;11.424;2022-10-28T04:33:41;8.00;99.90
21563;DHT22;10942;47.894;11.424;2022-10-28T04:36:07;8.00;99.90
21563;DHT22;10942;47.894;11.424;2022-10-28T04:48:17;8.00;99.90
21563;DHT22;10942;47.894;11.424;2022-10-28T04:50:43;7.90;99.90
21563;DHT22;10942;47.894;11.424;2022-10-28T04:53:10;8.00;99.90
21563;DHT22;10942;47.894;11.424;2022-10-28T04:55:35;7.90;99.90
21563;DHT22;10942;47.894;11.424;2022-10-28T04:58:01;7.90;99.90
21563;DHT22;10942;47.894;11.424;2022-10-28T05:00:28;7.80;99.90
21563;DHT22;10942;47.894;11.424;2022-10-28T05:02:54;7.90;99.90
21563;DHT22;10942;47.894;11.424;2022-10-28T05:05:20;7.80;99.90
21563;DHT22;10942;47.894;11.424;2022-10-28T05:07:46;7.80;99.90
21563;DHT22;10942;47.894;11.424;2022-10-28T05:10:12;7.80;99.90
21563;DHT22;10942;47.894;11.424;2022-10-28T05:12:43;7.80;99.90
21563;DHT22;10942;47.894;11.424;2022-10-28T05:15:10;7.80;99.90
21563;DHT22;10942;47.894;11.424;2022-10-28T05:17:41;7.80;99.90
21563;DHT22;10942;47.894;11.424;2022-10-28T05:20:11;7.80;99.90
21563;DHT22;10942;47.894;11.424;2022-10-28T05:22:37;7.70;99.90
21563;DHT22;10942;47.894;11.424;2022-10-28T05:27:29;7.80;99.90
21563;DHT22;10942;47.894;11.424;2022-10-28T05:29:55;7.70;99.90
21563;DHT22;10942;47.894;11.424;2022-10-28T05:32:21;7.70;99.90
21563;DHT22;10942;47.894;11.424;2022-10-28T05:34:46;7.70;99.90
21563;DHT22;10942;47.894;11.424;2022-10-28T05:42:04;7.70;99.90
21563;DHT22;10942;47.894;11.424;2022-10-28T05:44:30;7.60;99.90
21563;DHT22;10942;47.894;11.424;2022-10-28T05:46:55;7.60;99.90
21563;DHT22;10942;47.894;11.424;2022-10-28T05:49:21;7.60;99.90
21563;DHT22;10942;47.894;11.424;2022-10-28T05:51:47;7.70;99.90
21563;DHT22;10942;47.894;11.424;2022-10-28T05:54:12;7.70;99.90
21563;DHT22;10942;47.894;11.424;2022-10-28T05:56:38;7.70;99.90
21563;DHT22;10942;47.894;11.424;2022-10-28T05:59:04;7.70;99.90
21563;DHT22;10942;47.894;11.424;2022-10-28T06:01:29;7.70;99.90
21563;DHT22;10942;47.894;11.424;2022-10-28T06:03:55;7.70;99.90
21563;DHT22;10942;47.894;11.424;2022-10-28T06:06:21;7.70;99.90
21563;DHT22;10942;47.894;11.424;2022-10-28T06:08:46;7.80;99.90
21563;DHT22;10942;47.894;11.424;2022-10-28T06:11:12;7.80;99.90
21563;DHT22;10942;47.894;11.424;2022-10-28T06:13:38;7.90;99.90
21563;DHT22;10942;47.894;11.424;2022-10-28T06:16:03;7.90;99.90
21563;DHT22;10942;47.894;11.424;2022-10-28T06:18:29;8.00;99.90
21563;DHT22;10942;47.894;11.424;2022-10-28T06:20:58;8.10;99.90
21563;DHT22;10942;47.894;11.424;2022-10-28T06:23:25;8.30;99.90
21563;DHT22;10942;47.894;11.424;2022-10-28T06:25:58;8.40;99.90
21563;DHT22;10942;47.894;11.424;2022-10-28T06:28:24;8.60;99.90
21563;DHT22;10942;47.894;11.424;2022-10-28T06:30:50;8.80;99.90
21563;DHT22;10942;47.894;11.424;2022-10-28T06:33:16;8.90;99.90
21563;DHT22;10942;47.894;11.424;2022-10-28T06:35:42;9.00;99.90
21563;DHT22;10942;47.894;11.424;2022-10-28T06:38:08;9.20;99.90
21563;DHT22;10942;47.894;11.424;2022-10-28T06:40:33;9.40;99.90
21563;DHT22;10942;47.894;11.424;2022-10-28T06:43:01;9.50;99.90
21563;DHT22;10942;47.894;11.424;2022-10-28T06:45:32;9.60;99.90
21563;DHT22;10942;47.894;11.424;2022-10-28T06:47:59;9.60;99.90
21563;DHT22;10942;47.894;11.424;2022-10-28T06:50:26;9.80;99.90
21563;DHT22;10942;47.894;11.424;2022-10-28T06:52:55;9.60;99.90
21563;DHT22;10942;47.894;11.424;2022-10-28T06:55:22;9.50;99.90
21563;DHT22;10942;47.894;11.424;2022-10-28T06:57:47;9.60;99.90
21563;DHT22;10942;47.894;11.424;2022-10-28T07:00:13;9.70;99.90
21563;DHT22;10942;47.894;11.424;2022-10-28T07:02:39;10.00;99.90
21563;DHT22;10942;47.894;11.424;2022-10-28T07:05:05;10.20;99.90
21563;DHT22;10942;47.894;11.424;2022-10-28T07:07:31;10.30;99.90
21563;DHT22;10942;47.894;11.424;2022-10-28T07:09:57;10.60;99.90
21563;DHT22;10942;47.894;11.424;2022-10-28T07:12:22;10.80;99.90
21563;DHT22;10942;47.894;11.424;2022-10-28T07:14:48;11.00;99.90
21563;DHT22;10942;47.894;11.424;2022-10-28T07:17:14;11.20;99.90
21563;DHT22;10942;47.894;11.424;2022-10-28T07:19:39;11.20;99.90
21563;DHT22;10942;47.894;11.424;2022-10-28T07:22:05;11.10;99.90
21563;DHT22;10942;47.894;11.424;2022-10-28T07:24:31;11.00;99.90
21563;DHT22;10942;47.894;11.424;2022-10-28T07:26:56;10.90;99.90
21563;DHT22;10942;47.894;11.424;2022-10-28T07:29:22;10.90;99.90
21563;DHT22;10942;47.894;11.424;2022-10-28T07:31:48;11.10;99.90
21563;DHT22;10942;47.894;11.424;2022-10-28T07:34:13;11.20;99.90
21563;DHT22;10942;47.894;11.424;2022-10-28T07:36:39;11.50;99.90
21563;DHT22;10942;47.894;11.424;2022-10-28T07:39:04;11.70;99.90
21563;DHT22;10942;47.894;11.424;2022-10-28T07:41:30;12.00;99.90
21563;DHT22;10942;47.894;11.424;2022-10-28T07:43:56;12.20;99.90
21563;DHT22;10942;47.894;11.424;2022-10-28T07:46:22;12.20;99.90
21563;DHT22;10942;47.894;11.424;2022-10-28T07:48:47;12.20;99.90
21563;DHT22;10942;47.894;11.424;2022-10-28T07:51:14;12.30;99.90
21563;DHT22;10942;47.894;11.424;2022-10-28T07:53:40;12.50;99.90
21563;DHT22;10942;47.894;11.424;2022-10-28T07:56:08;12.70;99.90
21563;DHT22;10942;47.894;11.424;2022-10-28T07:58:35;12.90;99.90
21563;DHT22;10942;47.894;11.424;2022-10-28T08:01:06;12.90;99.90
21563;DHT22;10942;47.894;11.424;2022-10-28T08:03:32;12.80;99.90
21563;DHT22;10942;47.894;11.424;2022-10-28T08:06:00;12.90;99.90
21563;DHT22;10942;47.894;11.424;2022-10-28T08:08:26;12.90;99.90
21563;DHT22;10942;47.894;11.424;2022-10-28T08:10:52;13.10;99.90
21563;DHT22;10942;47.894;11.424;2022-10-28T08:13:17;13.30;99.90
21563;DHT22;10942;47.894;11.424;2022-10-28T08:15:44;13.40;99.90
21563;DHT22;10942;47.894;11.424;2022-10-28T08:18:15;13.70;99.90
21563;DHT22;10942;47.894;11.424;2022-10-28T08:20:40;13.80;99.90
21563;DHT22;10942;47.894;11.424;2022-10-28T08:23:06;14.00;99.90
21563;DHT22;10942;47.894;11.424;2022-10-28T08:25:32;14.10;99.90
21563;DHT22;10942;47.894;11.424;2022-10-28T08:27:57;14.40;99.90
21563;DHT22;10942;47.894;11.424;2022-10-28T08:30:23;14.50;99.90
21563;DHT22;10942;47.894;11.424;2022-10-28T08:32:49;14.70;99.90
21563;DHT22;10942;47.894;11.424;2022-10-28T08:35:14;15.00;99.90
21563;DHT22;10942;47.894;11.424;2022-10-28T08:37:40;15.30;99.90
21563;DHT22;10942;47.894;11.424;2022-10-28T08:40:10;15.60;99.90
21563;DHT22;10942;47.894;11.424;2022-10-28T08:42:46;16.00;99.90
21563;DHT22;10942;47.894;11.424;2022-10-28T08:45:32;16.20;99.90
21563;DHT22;10942;47.894;11.424;2022-10-28T08:48:31;16.50;99.90
21563;DHT22;10942;47.894;11.424;2022-10-28T08:51:08;16.50;99.90
21563;DHT22;10942;47.894;11.424;2022-10-28T08:53:40;16.50;99.90
21563;DHT22;10942;47.894;11.424;2022-10-28T08:56:14;16.40;99.90
21563;DHT22;10942;47.894;11.424;2022-10-28T08:58:42;16.50;99.90
21563;DHT22;10942;47.894;11.424;2022-10-28T09:01:18;16.40;99.90
21563;DHT22;10942;47.894;11.424;2022-10-28T09:03:47;16.50;99.90
21563;DHT22;10942;47.894;11.424;2022-10-28T09:06:14;16.40;99.90
21563;DHT22;10942;47.894;11.424;2022-10-28T09:08:45;16.50;99.90
21563;DHT22;10942;47.894;11.424;2022-10-28T09:11:14;16.50;99.90
21563;DHT22;10942;47.894;11.424;2022-10-28T09:14:05;16.60;99.90
21563;DHT22;10942;47.894;11.424;2022-10-28T09:16:45;16.80;99.90
21563;DHT22;10942;47.894;11.424;2022-10-28T09:22:35;16.90;99.90
21563;DHT22;10942;47.894;11.424;2022-10-28T09:25:21;17.00;99.90
21563;DHT22;10942;47.894;11.424;2022-10-28T09:30:27;17.00;99.90
21563;DHT22;10942;47.894;11.424;2022-10-28T09:35:24;17.10;99.90
21563;DHT22;10942;47.894;11.424;2022-10-28T09:38:25;17.30;99.90
21563;DHT22;10942;47.894;11.424;2022-10-28T09:41:00;17.50;99.90
21563;DHT22;10942;47.894;11.424;2022-10-28T09:43:32;17.60;99.90
21563;DHT22;10942;47.894;11.424;2022-10-28T09:46:19;18.00;99.90
21563;DHT22;10942;47.894;11.424;2022-10-28T09:56:25;20.90;99.90
21563;DHT22;10942;47.894;11.424;2022-10-28T09:58:53;21.60;99.90
21563;DHT22;10942;47.894;11.424;2022-10-28T10:01:19;22.40;99.90
21563;DHT22;10942;47.894;11.424;2022-10-28T10:03:49;22.80;99.90
21563;DHT22;10942;47.894;11.424;2022-10-28T10:06:35;23.00;99.90
21563;DHT22;10942;47.894;11.424;2022-10-28T10:11:37;23.90;99.90
21563;DHT22;10942;47.894;11.424;2022-10-28T10:16:58;24.20;99.90
21563;DHT22;10942;47.894;11.424;2022-10-28T10:19:24;24.30;99.90
21563;DHT22;10942;47.894;11.424;2022-10-28T10:21:52;24.00;99.90
21563;DHT22;10942;47.894;11.424;2022-10-28T10:24:27;23.50;99.90
21563;DHT22;10942;47.894;11.424;2022-10-28T10:26:53;23.10;99.90
21563;DHT22;10942;47.894;11.424;2022-10-28T10:29:19;22.60;99.90
21563;DHT22;10942;47.894;11.424;2022-10-28T10:34:25;22.00;99.90
21563;DHT22;10942;47.894;11.424;2022-10-28T10:36:54;21.50;99.90
21563;DHT22;10942;47.894;11.424;2022-10-28T10:39:32;21.20;99.90
21563;DHT22;10942;47.894;11.424;2022-10-28T10:41:59;20.80;99.90
21563;DHT22;10942;47.894;11.424;2022-10-28T10:44:34;20.60;99.90
21563;DHT22;10942;47.894;11.424;2022-10-28T10:51:58;20.20;99.90
21563;DHT22;10942;47.894;11.424;2022-10-28T10:54:26;20.30;99.90
21563;DHT22;10942;47.894;11.424;2022-10-28T10:56:52;20.30;99.90
21563;DHT22;10942;47.894;11.424;2022-10-28T10:59:28;20.20;99.90
21563;DHT22;10942;47.894;11.424;2022-10-28T11:01:55;20.10;99.90
21563;DHT22;10942;47.894;11.424;2022-10-28T11:04:24;20.00;99.90
21563;DHT22;10942;47.894;11.424;2022-10-28T11:06:53;20.10;99.90
21563;DHT22;10942;47.894;11.424;2022-10-28T11:09:35;20.10;99.90
21563;DHT22;10942;47.894;11.424;2022-10-28T11:12:18;20.00;99.90
21563;DHT22;10942;47.894;11.424;2022-10-28T11:14:54;20.00;99.90
21563;DHT22;10942;47.894;11.424;2022-10-28T11:17:31;19.90;99.90
21563;DHT22;10942;47.894;11.424;2022-10-28T11:19:59;19.90;99.90
21563;DHT22;10942;47.894;11.424;2022-10-28T11:22:41;19.90;99.90
21563;DHT22;10942;47.894;11.424;2022-10-28T11:44:44;19.70;99.90
21563;DHT22;10942;47.894;11.424;2022-10-28T11:47:33;19.70;99.90
21563;DHT22;10942;47.894;11.424;2022-10-28T11:56:36;19.90;99.90
21563;DHT22;10942;47.894;11.424;2022-10-28T12:01:52;20.10;99.90
21563;DHT22;10942;47.894;11.424;2022-10-28T12:07:50;20.30;99.90
21563;DHT22;10942;47.894;11.424;2022-10-28T12:10:34;20.30;99.90
21563;DHT22;10942;47.894;11.424;2022-10-28T12:13:26;20.30;99.90
21563;DHT22;10942;47.894;11.424;2022-10-28T12:16:16;20.50;99.90
21563;DHT22;10942;47.894;11.424;2022-10-28T12:21:39;20.50;99.90
21563;DHT22;10942;47.894;11.424;2022-10-28T12:24:13;20.60;99.90
21563;DHT22;10942;47.894;11.424;2022-10-28T12:26:52;20.60;99.90
21563;DHT22;10942;47.894;11.424;2022-10-28T12:29:31;20.70;99.90
21563;DHT22;10942;47.894;11.424;2022-10-28T12:32:03;20.60;99.90
21563;DHT22;10942;47.894;11.424;2022-10-28T12:34:33;20.70;99.90
21563;DHT22;10942;47.894;11.424;2022-10-28T12:37:20;20.60;99.90
21563;DHT22;10942;47.894;11.424;2022-10-28T12:42:37;20.70;99.90
21563;DHT22;10942;47.894;11.424;2022-10-28T12:45:09;20.80;99.90
21563;DHT22;10942;47.894;11.424;2022-10-28T12:47:41;20.70;99.90
21563;DHT22;10942;47.894;11.424;2022-10-28T12:55:36;20.70;99.90
21563;DHT22;10942;47.894;11.424;2022-10-28T12:58:13;20.70;99.90
21563;DHT22;10942;47.894;11.424;2022-10-28T13:00:43;20.80;99.90
21563;DHT22;10942;47.894;11.424;2022-10-28T13:03:12;20.80;99.90
21563;DHT22;10942;47.894;11.424;2022-10-28T13:06:03;20.70;99.90
21563;DHT22;10942;47.894;11.424;2022-10-28T13:25:24;21.30;99.90
21563;DHT22;10942;47.894;11.424;2022-10-28T13:27:55;21.20;99.90
21563;DHT22;10942;47.894;11.424;2022-10-28T13:30:21;21.20;99.90
21563;DHT22;10942;47.894;11.424;2022-10-28T13:32:59;21.30;99.90
21563;DHT22;10942;47.894;11.424;2022-10-28T13:35:27;21.30;99.90
21563;DHT22;10942;47.894;11.424;2022-10-28T13:37:53;21.30;99.90
21563;DHT22;10942;47.894;11.424;2022-10-28T13:43:19;21.30;99.90
21563;DHT22;10942;47.894;11.424;2022-10-28T13:45:53;21.40;99.90
21563;DHT22;10942;47.894;11.424;2022-10-28T14:04:31;21.20;99.90
21563;DHT22;10942;47.894;11.424;2022-10-28T14:09:33;21.30;99.90
21563;DHT22;10942;47.894;11.424;2022-10-28T14:12:16;21.20;99.90
21563;DHT22;10942;47.894;11.424;2022-10-28T14:15:25;21.10;99.90
21563;DHT22;10942;47.894;11.424;2022-10-28T14:18:06;21.00;99.90
21563;DHT22;10942;47.894;11.424;2022-10-28T14:42:21;19.90;99.90
21563;DHT22;10942;47.894;11.424;2022-10-28T14:48:20;19.60;99.90
21563;DHT22;10942;47.894;11.424;2022-10-28T14:50:50;19.40;99.90
21563;DHT22;10942;47.894;11.424;2022-10-28T14:53:21;19.30;99.90
21563;DHT22;10942;47.894;11.424;2022-10-28T14:55:55;19.20;99.90
21563;DHT22;10942;47.894;11.424;2022-10-28T14:58:25;19.20;99.90
21563;DHT22;10942;47.894;11.424;2022-10-28T15:03:43;19.10;99.90
21563;DHT22;10942;47.894;11.424;2022-10-28T15:11:32;18.70;99.90
21563;DHT22;10942;47.894;11.424;2022-10-28T15:14:11;18.70;99.90
21563;DHT22;10942;47.894;11.424;2022-10-28T15:16:45;18.70;99.90
21563;DHT22;10942;47.894;11.424;2022-10-28T15:19:18;18.60;99.90
21563;DHT22;10942;47.894;11.424;2022-10-28T15:21:57;18.50;99.90
21563;DHT22;10942;47.894;11.424;2022-10-28T15:24:23;18.40;99.90
21563;DHT22;10942;47.894;11.424;2022-10-28T15:26:53;18.40;99.90
21563;DHT22;10942;47.894;11.424;2022-10-28T15:29:20;18.40;99.90
21563;DHT22;10942;47.894;11.424;2022-10-28T15:34:38;18.10;99.90
21563;DHT22;10942;47.894;11.424;2022-10-28T15:37:04;18.10;99.90
21563;DHT22;10942;47.894;11.424;2022-10-28T15:39:30;18.00;99.90
21563;DHT22;10942;47.894;11.424;2022-10-28T15:41:56;17.90;99.90
21563;DHT22;10942;47.894;11.424;2022-10-28T15:44:36;17.90;99.90
21563;DHT22;10942;47.894;11.424;2022-10-28T15:47:32;17.80;99.90
21563;DHT22;10942;47.894;11.424;2022-10-28T15:52:36;17.60;99.90
21563;DHT22;10942;47.894;11.424;2022-10-28T15:55:26;17.60;99.90
21563;DHT22;10942;47.894;11.424;2022-10-28T16:05:51;17.20;99.90
21563;DHT22;10942;47.894;11.424;2022-10-28T16:08:20;17.10;99.90
21563;DHT22;10942;47.894;11.424;2022-10-28T16:11:15;17.00;99.90
21563;DHT22;10942;47.894;11.424;2022-10-28T16:16:24;16.90;99.90
21563;DHT22;10942;47.894;11.424;2022-10-28T16:18:59;16.80;99.90
21563;DHT22;10942;47.894;11.424;2022-10-28T16:21:26;16.70;99.90
21563;DHT22;10942;47.894;11.424;2022-10-28T16:23:53;16.60;99.90
21563;DHT22;10942;47.894;11.424;2022-10-28T16:26:27;16.50;99.90
21563;DHT22;10942;47.894;11.424;2022-10-28T16:28:53;16.40;99.90
21563;DHT22;10942;47.894;11.424;2022-10-28T16:31:20;16.40;99.90
21563;DHT22;10942;47.894;11.424;2022-10-28T16:33:47;16.40;99.90
21563;DHT22;10942;47.894;11.424;2022-10-28T16:36:13;16.30;99.90
21563;DHT22;10942;47.894;11.424;2022-10-28T16:38:39;16.30;99.90
21563;DHT22;10942;47.894;11.424;2022-10-28T16:41:06;16.20;99.90
21563;DHT22;10942;47.894;11.424;2022-10-28T16:43:35;16.20;99.90
21563;DHT22;10942;47.894;11.424;2022-10-28T16:46:01;16.10;99.90
21563;DHT22;10942;47.894;11.424;2022-10-28T16:48:29;16.10;99.90
21563;DHT22;10942;47.894;11.424;2022-10-28T16:51:00;16.10;99.90
21563;DHT22;10942;47.894;11.424;2022-10-28T16:53:27;16.00;99.90
21563;DHT22;10942;47.894;11.424;2022-10-28T16:55:52;16.00;99.90
21563;DHT22;10942;47.894;11.424;2022-10-28T16:58:24;15.90;99.90
21563;DHT22;10942;47.894;11.424;2022-10-28T17:00:51;15.90;99.90
21563;DHT22;10942;47.894;11.424;2022-10-28T17:03:17;15.80;99.90
21563;DHT22;10942;47.894;11.424;2022-10-28T17:05:42;15.70;99.90
21563;DHT22;10942;47.894;11.424;2022-10-28T17:08:09;15.70;99.90
21563;DHT22;10942;47.894;11.424;2022-10-28T17:10:36;15.70;99.90
21563;DHT22;10942;47.894;11.424;2022-10-28T17:13:01;15.60;99.90
21563;DHT22;10942;47.894;11.424;2022-10-28T17:15:27;15.50;99.90
21563;DHT22;10942;47.894;11.424;2022-10-28T17:17:53;15.50;99.90
21563;DHT22;10942;47.894;11.424;2022-10-28T17:20:19;15.50;99.90
21563;DHT22;10942;47.894;11.424;2022-10-28T17:22:45;15.40;99.90
21563;DHT22;10942;47.894;11.424;2022-10-28T17:25:11;15.40;99.90
21563;DHT22;10942;47.894;11.424;2022-10-28T17:27:36;15.30;99.90
21563;DHT22;10942;47.894;11.424;2022-10-28T17:30:03;15.30;99.90
21563;DHT22;10942;47.894;11.424;2022-10-28T17:32:29;15.20;99.90
21563;DHT22;10942;47.894;11.424;2022-10-28T17:34:54;15.20;99.90
21563;DHT22;10942;47.894;11.424;2022-10-28T17:37:20;15.10;99.90
21563;DHT22;10942;47.894;11.424;2022-10-28T17:39:45;15.10;99.90
21563;DHT22;10942;47.894;11.424;2022-10-28T17:42:11;15.00;99.90
21563;DHT22;10942;47.894;11.424;2022-10-28T17:44:37;14.90;99.90
21563;DHT22;10942;47.894;11.424;2022-10-28T17:47:02;14.90;99.90
21563;DHT22;10942;47.894;11.424;2022-10-28T17:49:28;14.80;99.90
21563;DHT22;10942;47.894;11.424;2022-10-28T17:51:55;14.80;99.90
21563;DHT22;10942;47.894;11.424;2022-10-28T17:54:20;14.70;99.90
21563;DHT22;10942;47.894;11.424;2022-10-28T17:56:46;14.70;99.90
21563;DHT22;10942;47.894;11.424;2022-10-28T17:59:13;14.70;99.90
21563;DHT22;10942;47.894;11.424;2022-10-28T18:01:39;14.60;99.90
21563;DHT22;10942;47.894;11.424;2022-10-28T18:04:04;14.60;99.90
21563;DHT22;10942;47.894;11.424;2022-10-28T18:06:32;14.60;99.90
21563;DHT22;10942;47.894;11.424;2022-10-28T18:08:58;14.50;99.90
21563;DHT22;10942;47.894;11.424;2022-10-28T18:11:24;14.40;99.90
21563;DHT22;10942;47.894;11.424;2022-10-28T18:13:51;14.30;99.90
21563;DHT22;10942;47.894;11.424;2022-10-28T18:16:22;14.30;99.90
21563;DHT22;10942;47.894;11.424;2022-10-28T18:18:49;14.30;99.90
21563;DHT22;10942;47.894;11.424;2022-10-28T18:21:18;14.30;99.90
21563;DHT22;10942;47.894;11.424;2022-10-28T18:23:52;14.30;99.90
21563;DHT22;10942;47.894;11.424;2022-10-28T18:26:18;14.20;99.90
21563;DHT22;10942;47.894;11.424;2022-10-28T18:28:44;14.20;99.90
21563;DHT22;10942;47.894;11.424;2022-10-28T18:31:15;14.20;99.90
21563;DHT22;10942;47.894;11.424;2022-10-28T18:33:42;14.20;99.90
21563;DHT22;10942;47.894;11.424;2022-10-28T18:36:11;14.20;99.90
21563;DHT22;10942;47.894;11.424;2022-10-28T18:38:37;14.10;99.90
21563;DHT22;10942;47.894;11.424;2022-10-28T18:41:03;14.10;99.90
21563;DHT22;10942;47.894;11.424;2022-10-28T18:43:29;14.00;99.90
21563;DHT22;10942;47.894;11.424;2022-10-28T18:46:00;14.00;99.90
21563;DHT22;10942;47.894;11.424;2022-10-28T18:48:27;13.90;99.90
21563;DHT22;10942;47.894;11.424;2022-10-28T18:50:56;13.90;99.90
21563;DHT22;10942;47.894;11.424;2022-10-28T18:53:23;13.90;99.90
21563;DHT22;10942;47.894;11.424;2022-10-28T18:55:49;13.90;99.90
21563;DHT22;10942;47.894;11.424;2022-10-28T18:58:14;14.00;99.90
21563;DHT22;10942;47.894;11.424;2022-10-28T19:00:40;14.00;99.90
21563;DHT22;10942;47.894;11.424;2022-10-28T19:03:16;13.90;99.90
21563;DHT22;10942;47.894;11.424;2022-10-28T19:05:43;13.90;99.90
21563;DHT22;10942;47.894;11.424;2022-10-28T19:08:09;13.90;99.90
21563;DHT22;10942;47.894;11.424;2022-10-28T19:10:34;13.90;99.90
21563;DHT22;10942;47.894;11.424;2022-10-28T19:13:00;13.90;99.90
21563;DHT22;10942;47.894;11.424;2022-10-28T19:15:26;13.90;99.90
21563;DHT22;10942;47.894;11.424;2022-10-28T19:17:54;13.90;99.90
21563;DHT22;10942;47.894;11.424;2022-10-28T19:20:20;13.80;99.90